Leon — D5BH4 — position and weather

sailwx.info

Track history (hours):
 
Tides and Currents Weather Stations Pressure Air Temp Water Temp Dewpoint Dewpoint Depression Visibility Wind Speed Wind Dir Waves Ship Positions

Leon

Last reported at 2016-Jun-29 03:24 UTC. Time now 2016-Jun-29 05:44 UTC.
Position N 55°54' E 017°38'.

Length 95 m; draft 5.3 m.

Type: Ship (hazmat cat C). MMSI: 636015519.

Date/timePositionNaut miles runAvg speedWind from/ knotsBaromVisibWave heightAir tempDewpointWater temp
2016-Jun-29 03:24N 55°54' E 017°38'8 9.6
2016-Jun-29 02:33N 55°52' E 017°24'68 9.4
2016-Jun-28 19:23N 55°35' E 015°27'910.1
2016-Jun-28 18:32N 55°32' E 015°13'1010.2
2016-Jun-28 17:34N 55°29' E 014°56'10 9.7
2016-Jun-28 16:34N 55°24' E 014°42'10 9.7
2016-Jun-28 15:33N 55°16' E 014°31'10 9.7
2016-Jun-28 14:33N 55°09' E 014°20'9 9.4
2016-Jun-28 13:34N 55°09' E 014°03'1110.2
2016-Jun-28 12:29N 55°10' E 013°44'2410.1
2016-Jun-28 10:09N 55°13' E 013°03'610.2
2016-Jun-28 09:34N 55°15' E 012°53'10 9.7
2016-Jun-28 08:33N 55°19' E 012°37'1010.3
2016-Jun-28 07:34N 55°29' E 012°41'1111.0
2016-Jun-28 06:34N 55°37' E 012°54'19 9.6
2016-Jun-28 04:34N 55°56' E 012°44'1010.3
2016-Jun-28 03:34N 56°05' E 012°35'1110.5
2016-Jun-28 02:33N 56°11' E 012°20'30 9.8
2016-Jun-27 23:32N 56°38' E 011°56'1010.5
2016-Jun-27 22:34N 56°47' E 011°51'1010.4
2016-Jun-27 21:34N 56°57' E 011°44'12 9.7
2016-Jun-27 20:21N 57°08' E 011°37'7 9.0
2016-Jun-27 19:33N 57°15' E 011°33'9 8.7
2016-Jun-27 18:33N 57°23' E 011°27'7 7.4
2016-Jun-27 17:33N 57°30' E 011°29'8 8.2
2016-Jun-27 16:34N 57°36' E 011°40'5 4.8
2016-Jun-27 15:34N 57°41' E 011°42'0 0.0
2016-Jun-27 14:31N 57°41' E 011°42'0 0.0
2016-Jun-27 13:31N 57°41' E 011°42'0 0.0
2016-Jun-27 12:28N 57°41' E 011°42'0 0.0
2016-Jun-27 11:31N 57°41' E 011°42'0 0.0
2016-Jun-27 10:28N 57°41' E 011°42'0 0.0
2016-Jun-27 09:31N 57°41' E 011°42'0 0.0
2016-Jun-27 08:31N 57°41' E 011°42'0 0.0
2016-Jun-27 07:31N 57°41' E 011°42'0 0.0
2016-Jun-27 06:31N 57°41' E 011°42'0 0.0
2016-Jun-27 05:31N 57°41' E 011°42'0 0.0
2016-Jun-27 04:31N 57°41' E 011°42'0 0.0
2016-Jun-27 03:31N 57°41' E 011°42'0 0.0
2016-Jun-27 02:31N 57°41' E 011°42'0 0.0
2016-Jun-27 01:31N 57°41' E 011°42'0 0.0
2016-Jun-27 00:31N 57°41' E 011°42'0 0.0
2016-Jun-26 23:31N 57°41' E 011°42'0 0.0
2016-Jun-26 22:31N 57°41' E 011°42'0 0.0
2016-Jun-26 21:31N 57°41' E 011°42'0 0.0
2016-Jun-26 20:31N 57°41' E 011°42'0 0.0
2016-Jun-26 19:31N 57°41' E 011°42'0 0.0
2016-Jun-26 18:31N 57°41' E 011°42'0 0.0
2016-Jun-26 17:25N 57°41' E 011°42'0 0.0
2016-Jun-26 16:31N 57°41' E 011°42'0 0.0
2016-Jun-26 15:31N 57°41' E 011°42'0 0.0
2016-Jun-26 14:31N 57°41' E 011°42'0 0.0
2016-Jun-26 13:28N 57°41' E 011°42'0 0.0
2016-Jun-26 12:31N 57°41' E 011°42'0 0.0
2016-Jun-26 11:28N 57°41' E 011°42'0 0.0
2016-Jun-26 10:28N 57°41' E 011°42'0 0.0
2016-Jun-26 09:31N 57°41' E 011°42'0 0.0
2016-Jun-26 08:31N 57°41' E 011°42'0 0.0
2016-Jun-26 07:31N 57°41' E 011°42'0 0.0
2016-Jun-26 06:31N 57°41' E 011°41'0 0.0
2016-Jun-26 05:31N 57°41' E 011°41'0 0.0
2016-Jun-26 04:31N 57°41' E 011°41'0 0.0
2016-Jun-26 03:31N 57°41' E 011°41'0 0.0
2016-Jun-26 02:31N 57°41' E 011°41'0 0.0
2016-Jun-26 01:31N 57°41' E 011°41'0 0.1
2016-Jun-26 00:31N 57°41' E 011°41'0 0.0
2016-Jun-25 23:31N 57°41' E 011°42'0 0.0
2016-Jun-25 22:31N 57°41' E 011°42'0 0.0
2016-Jun-25 21:31N 57°41' E 011°42'0 0.0
2016-Jun-25 20:31N 57°41' E 011°42'0 0.0
2016-Jun-25 19:31N 57°41' E 011°42'0 0.0
2016-Jun-25 18:31N 57°41' E 011°42'0 0.0
2016-Jun-25 17:31N 57°41' E 011°42'0 0.0
2016-Jun-25 16:31N 57°41' E 011°41'0 0.0
2016-Jun-25 15:31N 57°41' E 011°42'0 0.0
2016-Jun-25 14:31N 57°41' E 011°42'0 0.0
2016-Jun-25 13:31N 57°41' E 011°42'0 0.0
2016-Jun-25 12:31N 57°41' E 011°42'0 0.0
2016-Jun-25 11:31N 57°41' E 011°42'0 0.0
2016-Jun-25 10:28N 57°41' E 011°42'0 0.0
2016-Jun-25 09:31N 57°41' E 011°42'0 0.0
2016-Jun-25 08:31N 57°41' E 011°42'0 0.0
2016-Jun-25 07:31N 57°41' E 011°42'0 0.0
2016-Jun-25 06:31N 57°41' E 011°42'0 0.0
2016-Jun-25 05:31N 57°41' E 011°42'0 0.0
2016-Jun-25 04:25N 57°41' E 011°42'0 0.0
2016-Jun-25 03:31N 57°41' E 011°42'0 0.0
2016-Jun-25 02:31N 57°41' E 011°42'0 0.0
2016-Jun-25 01:31N 57°41' E 011°42'0 0.0
2016-Jun-25 00:31N 57°41' E 011°42'0 0.0
2016-Jun-24 23:31N 57°41' E 011°42'0 0.0
2016-Jun-24 22:28N 57°41' E 011°41'0 0.0
2016-Jun-24 21:31N 57°41' E 011°42'0 0.0
2016-Jun-24 20:31N 57°41' E 011°41'0 0.0
2016-Jun-24 19:31N 57°41' E 011°42'0 0.0
2016-Jun-24 18:31N 57°41' E 011°42'0 0.1
2016-Jun-24 17:31N 57°41' E 011°41'0 0.0
2016-Jun-24 16:31N 57°41' E 011°41'0 0.0
2016-Jun-24 15:31N 57°41' E 011°41'0 0.0
2016-Jun-24 14:31N 57°41' E 011°41'0 0.0
2016-Jun-24 13:31N 57°41' E 011°41'0 0.0
2016-Jun-24 12:31N 57°41' E 011°41'0 0.0
2016-Jun-24 11:31N 57°41' E 011°41'0 0.0
2016-Jun-24 10:31N 57°41' E 011°41'0 0.0
2016-Jun-24 09:31N 57°41' E 011°41'0 0.0
2016-Jun-24 08:31N 57°41' E 011°41'0 0.0
2016-Jun-24 07:31N 57°41' E 011°41'0 0.0
2016-Jun-24 04:31N 57°41' E 011°41'0 0.0
2016-Jun-24 03:31N 57°41' E 011°41'0 0.0
2016-Jun-24 02:31N 57°41' E 011°41'0 0.0
2016-Jun-24 01:31N 57°41' E 011°41'0 0.0
2016-Jun-24 00:31N 57°41' E 011°41'0 0.0
2016-Jun-23 23:31N 57°41' E 011°41'0 0.0
2016-Jun-23 22:31N 57°41' E 011°41'0 0.0
2016-Jun-23 21:31N 57°41' E 011°41'0 0.0
2016-Jun-23 20:28N 57°41' E 011°41'0 0.0
2016-Jun-23 19:31N 57°41' E 011°41'0 0.0
2016-Jun-23 18:31N 57°41' E 011°41'0 0.1
2016-Jun-23 17:31N 57°41' E 011°41'0 0.0
2016-Jun-23 16:31N 57°41' E 011°41'0 0.0
2016-Jun-23 15:28N 57°41' E 011°41'0 0.0
2016-Jun-23 14:31N 57°41' E 011°41'0 0.0
2016-Jun-23 13:25N 57°41' E 011°41'0 0.0
2016-Jun-23 12:31N 57°41' E 011°41'0 0.0
2016-Jun-23 11:28N 57°41' E 011°41'0 0.0
2016-Jun-23 10:28N 57°41' E 011°41'0 0.0
2016-Jun-23 09:28N 57°41' E 011°41'0 0.0
2016-Jun-23 08:31N 57°41' E 011°41'0 0.0
2016-Jun-23 07:31N 57°41' E 011°41'0 0.0
2016-Jun-23 05:31N 57°41' E 011°41'0 0.0
2016-Jun-23 04:31N 57°41' E 011°42'0 0.0
2016-Jun-23 03:31N 57°41' E 011°41'0 0.0
2016-Jun-23 02:31N 57°41' E 011°41'0 0.0
2016-Jun-23 01:31N 57°41' E 011°41'0 0.0
2016-Jun-23 00:31N 57°41' E 011°41'0 0.0
2016-Jun-22 23:31N 57°41' E 011°41'0 0.0
2016-Jun-22 22:31N 57°41' E 011°41'0 0.0
2016-Jun-22 21:31N 57°41' E 011°42'0 0.0
2016-Jun-22 20:28N 57°41' E 011°42'0 0.0
2016-Jun-22 19:34N 57°41' E 011°42'0 0.0
2016-Jun-22 18:28N 57°41' E 011°42'0 0.0
2016-Jun-22 17:31N 57°41' E 011°41'0 0.0
2016-Jun-22 16:31N 57°41' E 011°41'0 0.0
2016-Jun-22 15:31N 57°41' E 011°41'0 0.0
2016-Jun-22 14:34N 57°41' E 011°41'0 0.0
2016-Jun-22 13:31N 57°41' E 011°41'0 0.0
2016-Jun-22 12:34N 57°41' E 011°41'0 0.0
2016-Jun-22 11:31N 57°41' E 011°41'0 0.0
2016-Jun-22 10:31N 57°41' E 011°41'0 0.0
2016-Jun-22 09:31N 57°41' E 011°42'0 0.0
2016-Jun-22 08:31N 57°41' E 011°42'0 0.0
2016-Jun-22 07:34N 57°41' E 011°42'0 0.0
2016-Jun-22 06:34N 57°41' E 011°42'0 0.0
2016-Jun-22 05:34N 57°41' E 011°42'0 0.0
2016-Jun-22 04:34N 57°41' E 011°42'0 0.0
2016-Jun-22 03:34N 57°41' E 011°42'0 0.0
2016-Jun-22 02:34N 57°41' E 011°42'0 0.0
2016-Jun-22 01:34N 57°41' E 011°42'0 0.0
2016-Jun-22 00:34N 57°41' E 011°42'0 0.0
2016-Jun-21 23:34N 57°41' E 011°42'0 0.0
2016-Jun-21 22:34N 57°41' E 011°42'0 0.0
2016-Jun-21 21:34N 57°41' E 011°42'0 0.0
2016-Jun-21 20:31N 57°41' E 011°42'0 0.0
2016-Jun-21 19:34N 57°41' E 011°42'0 0.0
2016-Jun-21 18:34N 57°41' E 011°42'0 0.0
2016-Jun-21 17:34N 57°41' E 011°42'0 0.0
2016-Jun-21 16:34N 57°41' E 011°42'0 0.0
2016-Jun-21 15:34N 57°41' E 011°42'0 0.0
2016-Jun-21 14:34N 57°41' E 011°42'0 0.0
2016-Jun-21 13:34N 57°41' E 011°42'0 0.0
2016-Jun-21 12:33N 57°41' E 011°42'0 0.0
2016-Jun-21 11:33N 57°41' E 011°41'0 0.0
2016-Jun-21 10:33N 57°41' E 011°42'0 0.0
2016-Jun-21 09:33N 57°41' E 011°42'0 0.0
2016-Jun-21 08:33N 57°41' E 011°42'0 0.1
2016-Jun-21 07:34N 57°41' E 011°41'0 0.0
2016-Jun-21 06:32N 57°41' E 011°41'6 3.2
2016-Jun-21 04:31N 57°41' E 011°53'0 0.0
2016-Jun-21 03:31N 57°41' E 011°53'0 0.0
2016-Jun-21 02:31N 57°41' E 011°53'0 0.0
2016-Jun-21 01:31N 57°41' E 011°53'0 0.0
2016-Jun-21 00:31N 57°41' E 011°53'0 0.0
2016-Jun-20 23:31N 57°41' E 011°53'0 0.0
2016-Jun-20 22:31N 57°41' E 011°53'0 0.0
2016-Jun-20 21:31N 57°41' E 011°53'0 0.0
2016-Jun-20 20:31N 57°41' E 011°53'0 0.0
2016-Jun-20 19:31N 57°41' E 011°53'0 0.0
2016-Jun-20 18:31N 57°41' E 011°53'0 0.0
2016-Jun-20 17:31N 57°41' E 011°53'0 0.0
2016-Jun-20 16:31N 57°41' E 011°53'0 0.0
2016-Jun-20 15:31N 57°41' E 011°53'0 0.0
2016-Jun-20 14:31N 57°41' E 011°53'0 0.0
2016-Jun-20 13:31N 57°41' E 011°53'0 0.0
2016-Jun-20 12:31N 57°41' E 011°53'0 0.0
2016-Jun-20 11:31N 57°41' E 011°53'0 0.0
2016-Jun-20 10:31N 57°41' E 011°53'0 0.0
2016-Jun-20 09:33N 57°41' E 011°53'2 1.9
2016-Jun-20 08:34N 57°41' E 011°50'9 9.2
2016-Jun-20 07:34N 57°37' E 011°35'7 7.3
2016-Jun-20 06:33N 57°41' E 011°23'8 7.8
2016-Jun-20 05:33N 57°45' E 011°12'8 8.0
2016-Jun-20 04:33N 57°50' E 010°60'9 8.9
2016-Jun-20 03:33N 57°55' E 010°45'9 7.6
2016-Jun-20 02:23N 57°59' E 010°31'  
Track history (hours):
 
Tides and Currents Weather Stations Pressure Air Temp Water Temp Dewpoint Dewpoint Depression Visibility Wind Speed Wind Dir Waves Ship Positions

Leon

Last reported at 2016-Jun-29 03:24 UTC. Time now 2016-Jun-29 05:44 UTC.
Position N 55°54' E 017°38'.

Length 95 m; draft 5.3 m.

Type: Ship (hazmat cat C). MMSI: 636015519.

Date/timePositionNaut miles runAvg speedWind from/ knotsBaromVisibWave heightAir tempDewpointWater temp
2016-Jun-29 03:24N 55°54' E 017°38'8 9.6
2016-Jun-29 02:33N 55°52' E 017°24'68 9.4
2016-Jun-28 19:23N 55°35' E 015°27'910.1
2016-Jun-28 18:32N 55°32' E 015°13'1010.2
2016-Jun-28 17:34N 55°29' E 014°56'10 9.7
2016-Jun-28 16:34N 55°24' E 014°42'10 9.7
2016-Jun-28 15:33N 55°16' E 014°31'10 9.7
2016-Jun-28 14:33N 55°09' E 014°20'9 9.4
2016-Jun-28 13:34N 55°09' E 014°03'1110.2
2016-Jun-28 12:29N 55°10' E 013°44'2410.1
2016-Jun-28 10:09N 55°13' E 013°03'610.2
2016-Jun-28 09:34N 55°15' E 012°53'10 9.7
2016-Jun-28 08:33N 55°19' E 012°37'1010.3
2016-Jun-28 07:34N 55°29' E 012°41'1111.0
2016-Jun-28 06:34N 55°37' E 012°54'19 9.6
2016-Jun-28 04:34N 55°56' E 012°44'1010.3
2016-Jun-28 03:34N 56°05' E 012°35'1110.5
2016-Jun-28 02:33N 56°11' E 012°20'30 9.8
2016-Jun-27 23:32N 56°38' E 011°56'1010.5
2016-Jun-27 22:34N 56°47' E 011°51'1010.4
2016-Jun-27 21:34N 56°57' E 011°44'12 9.7
2016-Jun-27 20:21N 57°08' E 011°37'7 9.0
2016-Jun-27 19:33N 57°15' E 011°33'9 8.7
2016-Jun-27 18:33N 57°23' E 011°27'7 7.4
2016-Jun-27 17:33N 57°30' E 011°29'8 8.2
2016-Jun-27 16:34N 57°36' E 011°40'5 4.8
2016-Jun-27 15:34N 57°41' E 011°42'0 0.0
2016-Jun-27 14:31N 57°41' E 011°42'0 0.0
2016-Jun-27 13:31N 57°41' E 011°42'0 0.0
2016-Jun-27 12:28N 57°41' E 011°42'0 0.0
2016-Jun-27 11:31N 57°41' E 011°42'0 0.0
2016-Jun-27 10:28N 57°41' E 011°42'0 0.0
2016-Jun-27 09:31N 57°41' E 011°42'0 0.0
2016-Jun-27 08:31N 57°41' E 011°42'0 0.0
2016-Jun-27 07:31N 57°41' E 011°42'0 0.0
2016-Jun-27 06:31N 57°41' E 011°42'0 0.0
2016-Jun-27 05:31N 57°41' E 011°42'0 0.0
2016-Jun-27 04:31N 57°41' E 011°42'0 0.0
2016-Jun-27 03:31N 57°41' E 011°42'0 0.0
2016-Jun-27 02:31N 57°41' E 011°42'0 0.0
2016-Jun-27 01:31N 57°41' E 011°42'0 0.0
2016-Jun-27 00:31N 57°41' E 011°42'0 0.0
2016-Jun-26 23:31N 57°41' E 011°42'0 0.0
2016-Jun-26 22:31N 57°41' E 011°42'0 0.0
2016-Jun-26 21:31N 57°41' E 011°42'0 0.0
2016-Jun-26 20:31N 57°41' E 011°42'0 0.0
2016-Jun-26 19:31N 57°41' E 011°42'0 0.0
2016-Jun-26 18:31N 57°41' E 011°42'0 0.0
2016-Jun-26 17:25N 57°41' E 011°42'0 0.0
2016-Jun-26 16:31N 57°41' E 011°42'0 0.0
2016-Jun-26 15:31N 57°41' E 011°42'0 0.0
2016-Jun-26 14:31N 57°41' E 011°42'0 0.0
2016-Jun-26 13:28N 57°41' E 011°42'0 0.0
2016-Jun-26 12:31N 57°41' E 011°42'0 0.0
2016-Jun-26 11:28N 57°41' E 011°42'0 0.0
2016-Jun-26 10:28N 57°41' E 011°42'0 0.0
2016-Jun-26 09:31N 57°41' E 011°42'0 0.0
2016-Jun-26 08:31N 57°41' E 011°42'0 0.0
2016-Jun-26 07:31N 57°41' E 011°42'0 0.0
2016-Jun-26 06:31N 57°41' E 011°41'0 0.0
2016-Jun-26 05:31N 57°41' E 011°41'0 0.0
2016-Jun-26 04:31N 57°41' E 011°41'0 0.0
2016-Jun-26 03:31N 57°41' E 011°41'0 0.0
2016-Jun-26 02:31N 57°41' E 011°41'0 0.0
2016-Jun-26 01:31N 57°41' E 011°41'0 0.1
2016-Jun-26 00:31N 57°41' E 011°41'0 0.0
2016-Jun-25 23:31N 57°41' E 011°42'0 0.0
2016-Jun-25 22:31N 57°41' E 011°42'0 0.0
2016-Jun-25 21:31N 57°41' E 011°42'0 0.0
2016-Jun-25 20:31N 57°41' E 011°42'0 0.0
2016-Jun-25 19:31N 57°41' E 011°42'0 0.0
2016-Jun-25 18:31N 57°41' E 011°42'0 0.0
2016-Jun-25 17:31N 57°41' E 011°42'0 0.0
2016-Jun-25 16:31N 57°41' E 011°41'0 0.0
2016-Jun-25 15:31N 57°41' E 011°42'0 0.0
2016-Jun-25 14:31N 57°41' E 011°42'0 0.0
2016-Jun-25 13:31N 57°41' E 011°42'0 0.0
2016-Jun-25 12:31N 57°41' E 011°42'0 0.0
2016-Jun-25 11:31N 57°41' E 011°42'0 0.0
2016-Jun-25 10:28N 57°41' E 011°42'0 0.0
2016-Jun-25 09:31N 57°41' E 011°42'0 0.0
2016-Jun-25 08:31N 57°41' E 011°42'0 0.0
2016-Jun-25 07:31N 57°41' E 011°42'0 0.0
2016-Jun-25 06:31N 57°41' E 011°42'0 0.0
2016-Jun-25 05:31N 57°41' E 011°42'0 0.0
2016-Jun-25 04:25N 57°41' E 011°42'0 0.0
2016-Jun-25 03:31N 57°41' E 011°42'0 0.0
2016-Jun-25 02:31N 57°41' E 011°42'0 0.0
2016-Jun-25 01:31N 57°41' E 011°42'0 0.0
2016-Jun-25 00:31N 57°41' E 011°42'0 0.0
2016-Jun-24 23:31N 57°41' E 011°42'0 0.0
2016-Jun-24 22:28N 57°41' E 011°41'0 0.0
2016-Jun-24 21:31N 57°41' E 011°42'0 0.0
2016-Jun-24 20:31N 57°41' E 011°41'0 0.0
2016-Jun-24 19:31N 57°41' E 011°42'0 0.0
2016-Jun-24 18:31N 57°41' E 011°42'0 0.1
2016-Jun-24 17:31N 57°41' E 011°41'0 0.0
2016-Jun-24 16:31N 57°41' E 011°41'0 0.0
2016-Jun-24 15:31N 57°41' E 011°41'0 0.0
2016-Jun-24 14:31N 57°41' E 011°41'0 0.0
2016-Jun-24 13:31N 57°41' E 011°41'0 0.0
2016-Jun-24 12:31N 57°41' E 011°41'0 0.0
2016-Jun-24 11:31N 57°41' E 011°41'0 0.0
2016-Jun-24 10:31N 57°41' E 011°41'0 0.0
2016-Jun-24 09:31N 57°41' E 011°41'0 0.0
2016-Jun-24 08:31N 57°41' E 011°41'0 0.0
2016-Jun-24 07:31N 57°41' E 011°41'0 0.0
2016-Jun-24 04:31N 57°41' E 011°41'0 0.0
2016-Jun-24 03:31N 57°41' E 011°41'0 0.0
2016-Jun-24 02:31N 57°41' E 011°41'0 0.0
2016-Jun-24 01:31N 57°41' E 011°41'0 0.0
2016-Jun-24 00:31N 57°41' E 011°41'0 0.0
2016-Jun-23 23:31N 57°41' E 011°41'0 0.0
2016-Jun-23 22:31N 57°41' E 011°41'0 0.0
2016-Jun-23 21:31N 57°41' E 011°41'0 0.0
2016-Jun-23 20:28N 57°41' E 011°41'0 0.0
2016-Jun-23 19:31N 57°41' E 011°41'0 0.0
2016-Jun-23 18:31N 57°41' E 011°41'0 0.1
2016-Jun-23 17:31N 57°41' E 011°41'0 0.0
2016-Jun-23 16:31N 57°41' E 011°41'0 0.0
2016-Jun-23 15:28N 57°41' E 011°41'0 0.0
2016-Jun-23 14:31N 57°41' E 011°41'0 0.0
2016-Jun-23 13:25N 57°41' E 011°41'0 0.0
2016-Jun-23 12:31N 57°41' E 011°41'0 0.0
2016-Jun-23 11:28N 57°41' E 011°41'0 0.0
2016-Jun-23 10:28N 57°41' E 011°41'0 0.0
2016-Jun-23 09:28N 57°41' E 011°41'0 0.0
2016-Jun-23 08:31N 57°41' E 011°41'0 0.0
2016-Jun-23 07:31N 57°41' E 011°41'0 0.0
2016-Jun-23 05:31N 57°41' E 011°41'0 0.0
2016-Jun-23 04:31N 57°41' E 011°42'0 0.0
2016-Jun-23 03:31N 57°41' E 011°41'0 0.0
2016-Jun-23 02:31N 57°41' E 011°41'0 0.0
2016-Jun-23 01:31N 57°41' E 011°41'0 0.0
2016-Jun-23 00:31N 57°41' E 011°41'0 0.0
2016-Jun-22 23:31N 57°41' E 011°41'0 0.0
2016-Jun-22 22:31N 57°41' E 011°41'0 0.0
2016-Jun-22 21:31N 57°41' E 011°42'0 0.0
2016-Jun-22 20:28N 57°41' E 011°42'0 0.0
2016-Jun-22 19:34N 57°41' E 011°42'0 0.0
2016-Jun-22 18:28N 57°41' E 011°42'0 0.0
2016-Jun-22 17:31N 57°41' E 011°41'0 0.0
2016-Jun-22 16:31N 57°41' E 011°41'0 0.0
2016-Jun-22 15:31N 57°41' E 011°41'0 0.0
2016-Jun-22 14:34N 57°41' E 011°41'0 0.0
2016-Jun-22 13:31N 57°41' E 011°41'0 0.0
2016-Jun-22 12:34N 57°41' E 011°41'0 0.0
2016-Jun-22 11:31N 57°41' E 011°41'0 0.0
2016-Jun-22 10:31N 57°41' E 011°41'0 0.0
2016-Jun-22 09:31N 57°41' E 011°42'0 0.0
2016-Jun-22 08:31N 57°41' E 011°42'0 0.0
2016-Jun-22 07:34N 57°41' E 011°42'0 0.0
2016-Jun-22 06:34N 57°41' E 011°42'0 0.0
2016-Jun-22 05:34N 57°41' E 011°42'0 0.0
2016-Jun-22 04:34N 57°41' E 011°42'0 0.0
2016-Jun-22 03:34N 57°41' E 011°42'0 0.0
2016-Jun-22 02:34N 57°41' E 011°42'0 0.0
2016-Jun-22 01:34N 57°41' E 011°42'0 0.0
2016-Jun-22 00:34N 57°41' E 011°42'0 0.0
2016-Jun-21 23:34N 57°41' E 011°42'0 0.0
2016-Jun-21 22:34N 57°41' E 011°42'0 0.0
2016-Jun-21 21:34N 57°41' E 011°42'0 0.0
2016-Jun-21 20:31N 57°41' E 011°42'0 0.0
2016-Jun-21 19:34N 57°41' E 011°42'0 0.0
2016-Jun-21 18:34N 57°41' E 011°42'0 0.0
2016-Jun-21 17:34N 57°41' E 011°42'0 0.0
2016-Jun-21 16:34N 57°41' E 011°42'0 0.0
2016-Jun-21 15:34N 57°41' E 011°42'0 0.0
2016-Jun-21 14:34N 57°41' E 011°42'0 0.0
2016-Jun-21 13:34N 57°41' E 011°42'0 0.0
2016-Jun-21 12:33N 57°41' E 011°42'0 0.0
2016-Jun-21 11:33N 57°41' E 011°41'0 0.0
2016-Jun-21 10:33N 57°41' E 011°42'0 0.0
2016-Jun-21 09:33N 57°41' E 011°42'0 0.0
2016-Jun-21 08:33N 57°41' E 011°42'0 0.1
2016-Jun-21 07:34N 57°41' E 011°41'0 0.0
2016-Jun-21 06:32N 57°41' E 011°41'6 3.2
2016-Jun-21 04:31N 57°41' E 011°53'0 0.0
2016-Jun-21 03:31N 57°41' E 011°53'0 0.0
2016-Jun-21 02:31N 57°41' E 011°53'0 0.0
2016-Jun-21 01:31N 57°41' E 011°53'0 0.0
2016-Jun-21 00:31N 57°41' E 011°53'0 0.0
2016-Jun-20 23:31N 57°41' E 011°53'0 0.0
2016-Jun-20 22:31N 57°41' E 011°53'0 0.0
2016-Jun-20 21:31N 57°41' E 011°53'0 0.0
2016-Jun-20 20:31N 57°41' E 011°53'0 0.0
2016-Jun-20 19:31N 57°41' E 011°53'0 0.0
2016-Jun-20 18:31N 57°41' E 011°53'0 0.0
2016-Jun-20 17:31N 57°41' E 011°53'0 0.0
2016-Jun-20 16:31N 57°41' E 011°53'0 0.0
2016-Jun-20 15:31N 57°41' E 011°53'0 0.0
2016-Jun-20 14:31N 57°41' E 011°53'0 0.0
2016-Jun-20 13:31N 57°41' E 011°53'0 0.0
2016-Jun-20 12:31N 57°41' E 011°53'0 0.0
2016-Jun-20 11:31N 57°41' E 011°53'0 0.0
2016-Jun-20 10:31N 57°41' E 011°53'0 0.0
2016-Jun-20 09:33N 57°41' E 011°53'2 1.9
2016-Jun-20 08:34N 57°41' E 011°50'9 9.2
2016-Jun-20 07:34N 57°37' E 011°35'7 7.3
2016-Jun-20 06:33N 57°41' E 011°23'8 7.8
2016-Jun-20 05:33N 57°45' E 011°12'8 8.0
2016-Jun-20 04:33N 57°50' E 010°60'9 8.9
2016-Jun-20 03:33N 57°55' E 010°45'9 7.6
2016-Jun-20 02:23N 57°59' E 010°31'  

Dump ship's entire track history